Wilson Lake, Indiana
Current Conditions -  °F | °C
As of 12:54 PM on Thursday 30 Oct 2014 (Local Time) from KFWA Reporting Station
Overcast Overcast  
Wind Chill: 48°   Ceiling: 4200
Heat Index: 48°   Visibility: 10mi
Dew Point: 35°   Wind: 3mph
Humidity: 61%   Direction: 220°SW
Pressure: 30.15"   Gusts: NA
Location:  41.1479°N, 85.4772°W
Report Text: KFWA 301654Z 22003KT 10SM FEW035 OVC042 09/02 A3015 RMK AO2 SLP213 T00890017
Loading
Personal Weather Stations






























Interactive Weather Map
Tropical Storm Tracking
New forecast layout! Learn more

10-Day Weather Forecast

Advertisements
Track Severe Weather on mobile